Time;durP1;ratioP1;P1;durP2;ratioP2;P2;SDS_P1;SDS_P2;PMS_P1;PMS_P2;Temp;Humidity;BMP_temperature;BMP_pressure;BME280_temperature;BME280_humidity;BME280_pressure;Samples;Min_cycle;Max_cycle;Signal;HPM_P1;HPM_P2
2022/05/14 00:00:26;;;;;;;4.22;1.27;;;20.90;56.30;;;;;;5075946;28;20456;-57
2022/05/14 00:02:51;;;;;;;3.78;1.20;;;20.90;56.30;;;;;;5075145;28;20066;-56
2022/05/14 00:05:18;;;;;;;2.95;1.42;;;20.90;56.20;;;;;;5075893;28;20105;-57
2022/05/14 00:07:43;;;;;;;3.90;1.27;;;20.90;56.20;;;;;;5074199;28;20051;-57
2022/05/14 00:10:10;;;;;;;3.78;1.30;;;20.90;56.30;;;;;;5072135;28;20049;-57
2022/05/14 00:15:20;;;;;;;3.50;1.10;;;20.90;56.30;;;;;;5074298;28;20048;-57
2022/05/14 00:17:47;;;;;;;2.63;1.20;;;20.90;56.30;;;;;;5073713;28;20442;-57
2022/05/14 00:20:12;;;;;;;4.93;1.50;;;20.90;56.30;;;;;;5074665;28;20048;-57
2022/05/14 00:22:38;;;;;;;2.75;1.05;;;20.90;56.30;;;;;;5074110;28;20047;-56
2022/05/14 00:25:04;;;;;;;3.58;1.13;;;20.90;56.20;;;;;;5073219;28;20044;-57
2022/05/14 00:27:30;;;;;;;4.30;1.00;;;20.80;56.20;;;;;;5074540;28;20040;-56
2022/05/14 00:29:55;;;;;;;4.43;1.00;;;20.80;56.20;;;;;;5074819;28;20049;-57
2022/05/14 00:32:21;;;;;;;4.25;1.40;;;20.80;56.20;;;;;;5074484;28;20036;-57
2022/05/14 00:34:46;;;;;;;3.45;1.30;;;20.80;56.20;;;;;;5075228;28;20129;-57
2022/05/14 00:37:12;;;;;;;2.92;1.10;;;20.80;56.30;;;;;;5074053;28;20376;-57
2022/05/14 00:39:37;;;;;;;6.10;1.30;;;20.80;56.30;;;;;;5073118;28;20063;-57
2022/05/14 00:42:03;;;;;;;4.03;1.20;;;20.80;56.20;;;;;;5074306;28;20049;-57
2022/05/14 00:44:29;;;;;;;5.45;1.40;;;20.80;56.20;;;;;;5073584;28;20044;-56
2022/05/14 00:46:59;;;;;;;4.07;1.50;;;20.80;56.20;;;;;;5073345;28;20557;-57
2022/05/14 00:49:25;;;;;;;3.63;1.35;;;20.80;56.20;;;;;;5073547;28;20063;-57
2022/05/14 00:51:50;;;;;;;3.17;1.15;;;20.80;56.20;;;;;;5071602;28;20492;-57
2022/05/14 00:54:18;;;;;;;4.45;1.42;;;20.80;56.20;;;;;;5071877;28;20490;-57
2022/05/14 00:56:52;;;;;;;3.05;1.10;;;20.80;56.20;;;;;;5056268;28;20365;-56
2022/05/14 00:59:20;;;;;;;3.67;1.40;;;20.80;56.20;;;;;;5074375;28;20040;-56
2022/05/14 01:01:45;;;;;;;2.92;1.17;;;20.80;56.30;;;;;;5074748;28;20090;-57
2022/05/14 01:04:11;;;;;;;2.25;1.17;;;20.70;56.10;;;;;;5073300;28;20048;-57
2022/05/14 01:06:37;;;;;;;2.75;1.20;;;20.70;56.10;;;;;;5073925;28;20090;-57
2022/05/14 01:09:04;;;;;;;2.53;0.88;;;20.70;56.10;;;;;;5071749;28;20064;-57
2022/05/14 01:11:30;;;;;;;2.67;1.13;;;20.70;56.10;;;;;;5074871;28;20108;-56
2022/05/14 01:13:56;;;;;;;3.10;1.15;;;20.70;56.10;;;;;;5072172;28;20469;-57
2022/05/14 01:16:22;;;;;;;2.53;1.02;;;20.70;56.10;;;;;;5074280;28;20044;-57
2022/05/14 01:18:48;;;;;;;4.07;1.38;;;20.70;56.20;;;;;;5074439;28;20123;-57
2022/05/14 01:21:25;;;;;;;4.68;1.20;;;20.70;56.10;;;;;;5071052;28;20052;-57
2022/05/14 01:26:51;;;;;;;2.53;1.10;;;20.70;56.10;;;;;;5072768;28;20049;-56
2022/05/14 01:29:19;;;;;;;4.82;1.30;;;20.70;56.10;;;;;;5073308;28;20041;-56
2022/05/14 01:31:45;;;;;;;3.67;1.60;;;20.70;56.10;;;;;;5073514;28;20036;-57
2022/05/14 01:34:14;;;;;;;2.95;1.10;;;20.70;56.20;;;;;;5073212;28;20090;-57
2022/05/14 01:36:39;;;;;;;4.15;1.20;;;20.70;56.20;;;;;;5072786;28;20059;-56
2022/05/14 01:39:05;;;;;;;4.82;1.25;;;20.70;56.20;;;;;;5073384;28;20040;-56
2022/05/14 01:41:31;;;;;;;5.28;1.10;;;20.70;56.20;;;;;;5073425;28;20040;-57
2022/05/14 01:43:56;;;;;;;2.53;0.90;;;20.70;56.20;;;;;;5073267;28;20036;-57
2022/05/14 01:46:22;;;;;;;2.58;0.90;;;20.70;56.20;;;;;;5073209;28;20067;-56
2022/05/14 01:48:48;;;;;;;2.95;1.20;;;20.70;56.20;;;;;;5071629;28;20068;-57
2022/05/14 01:51:14;;;;;;;3.78;1.15;;;20.60;56.10;;;;;;5072649;28;20055;-56
2022/05/14 01:53:39;;;;;;;2.83;1.20;;;20.70;56.10;;;;;;5072116;28;20107;-57
2022/05/14 01:56:05;;;;;;;3.30;0.98;;;20.60;56.10;;;;;;5072175;28;20075;-57
2022/05/14 01:58:37;;;;;;;2.25;0.90;;;20.60;56.10;;;;;;5071714;28;20079;-56
2022/05/14 02:01:22;;;;;;;2.38;1.23;;;20.70;56.20;;;;;;5072795;28;20048;-56
2022/05/14 02:03:53;;;;;;;3.50;1.30;;;20.60;56.00;;;;;;5071145;28;20075;-56
2022/05/14 02:06:19;;;;;;;4.13;1.20;;;20.60;56.10;;;;;;5072386;28;20106;-57
2022/05/14 02:08:45;;;;;;;4.63;1.00;;;20.60;56.10;;;;;;5072847;28;20041;-56
2022/05/14 02:11:10;;;;;;;2.53;0.88;;;20.60;56.10;;;;;;5070926;28;20044;-56
2022/05/14 02:13:36;;;;;;;3.10;0.90;;;20.60;56.10;;;;;;5072307;28;20057;-56
2022/05/14 02:16:02;;;;;;;2.70;0.77;;;20.60;56.10;;;;;;5071785;28;20372;-57
2022/05/14 02:18:28;;;;;;;2.35;1.08;;;20.60;56.10;;;;;;5071908;28;20040;-56
2022/05/14 02:20:53;;;;;;;3.20;1.10;;;20.60;56.10;;;;;;5070824;28;20048;-57
2022/05/14 02:23:19;;;;;;;3.92;1.35;;;20.60;56.10;;;;;;5070273;28;20043;-56
2022/05/14 02:25:45;;;;;;;1.85;0.88;;;20.60;56.00;;;;;;5072106;28;20044;-57
2022/05/14 02:28:10;;;;;;;3.33;1.30;;;20.60;56.10;;;;;;5073293;28;20036;-57
2022/05/14 02:30:36;;;;;;;2.80;1.00;;;20.60;56.10;;;;;;5072568;28;20155;-57
2022/05/14 02:33:02;;;;;;;2.92;1.20;;;20.60;56.10;;;;;;5073040;28;20036;-57
2022/05/14 02:35:27;;;;;;;2.42;0.98;;;20.60;56.10;;;;;;5073116;28;20040;-56
2022/05/14 02:37:53;;;;;;;1.98;1.08;;;20.60;56.10;;;;;;5071223;28;20135;-57
2022/05/14 02:40:18;;;;;;;1.63;0.80;;;20.60;56.10;;;;;;5072592;28;20049;-57
2022/05/14 02:42:44;;;;;;;3.72;1.30;;;20.60;56.10;;;;;;5070771;28;20070;-57
2022/05/14 02:45:10;;;;;;;2.95;0.90;;;20.50;56.00;;;;;;5072060;28;20540;-57
2022/05/14 02:47:35;;;;;;;1.75;0.75;;;20.60;56.00;;;;;;5071618;28;20546;-57
2022/05/14 02:50:01;;;;;;;3.92;1.15;;;20.60;56.10;;;;;;5071681;28;20040;-57
2022/05/14 02:52:26;;;;;;;2.85;0.93;;;20.60;56.10;;;;;;5071313;28;20068;-56
2022/05/14 02:54:52;;;;;;;2.10;1.02;;;20.60;56.10;;;;;;5072025;28;20396;-57
2022/05/14 02:57:18;;;;;;;2.17;0.95;;;20.50;56.00;;;;;;5071886;28;20067;-56
2022/05/14 02:59:43;;;;;;;3.47;1.30;;;20.50;56.00;;;;;;5070642;28;20044;-57
2022/05/14 03:02:09;;;;;;;2.55;1.10;;;20.50;56.10;;;;;;5072657;28;20043;-57
2022/05/14 03:04:38;;;;;;;2.85;1.10;;;20.50;56.00;;;;;;5072756;28;20131;-56
2022/05/14 03:07:08;;;;;;;4.88;1.02;;;20.50;56.00;;;;;;5070670;28;20076;-57
2022/05/14 03:09:34;;;;;;;3.50;1.10;;;20.50;56.10;;;;;;5071176;28;20051;-57
2022/05/14 03:12:00;;;;;;;2.42;0.90;;;20.50;56.00;;;;;;5071057;28;20044;-56
2022/05/14 03:14:25;;;;;;;2.33;1.10;;;20.50;56.00;;;;;;5071526;28;20049;-57
2022/05/14 03:16:51;;;;;;;2.45;0.93;;;20.50;56.10;;;;;;5071551;28;20531;-57
2022/05/14 03:19:16;;;;;;;2.83;1.00;;;20.50;56.10;;;;;;5072468;28;20544;-56
2022/05/14 03:21:42;;;;;;;1.83;0.70;;;20.50;56.10;;;;;;5070456;28;20040;-57
2022/05/14 03:24:08;;;;;;;1.88;1.00;;;20.50;56.10;;;;;;5070556;28;20067;-57
2022/05/14 03:26:34;;;;;;;2.28;1.10;;;20.50;56.20;;;;;;5070526;28;20127;-57
2022/05/14 03:28:59;;;;;;;3.38;1.02;;;20.50;56.20;;;;;;5072188;28;20048;-57
2022/05/14 03:31:25;;;;;;;1.63;0.82;;;20.50;56.20;;;;;;5072071;28;20044;-56
2022/05/14 03:33:50;;;;;;;1.85;0.85;;;20.50;56.20;;;;;;5071439;28;20127;-56
2022/05/14 03:36:16;;;;;;;2.75;1.00;;;20.50;56.30;;;;;;5071561;28;20048;-56
2022/05/14 03:38:41;;;;;;;3.17;0.90;;;20.50;56.20;;;;;;5071051;28;20048;-57
2022/05/14 03:41:07;;;;;;;2.03;1.00;;;20.50;56.40;;;;;;5069382;28;20078;-56
2022/05/14 03:43:33;;;;;;;1.80;0.73;;;20.50;56.30;;;;;;5071396;28;20040;-57
2022/05/14 03:46:00;;;;;;;2.17;0.80;;;20.50;56.30;;;;;;5071855;28;20454;-56
2022/05/14 03:48:26;;;;;;;2.97;0.98;;;20.50;56.40;;;;;;5071234;28;20037;-57
2022/05/14 03:50:52;;;;;;;4.13;1.33;;;20.50;56.40;;;;;;5071734;28;20082;-57
2022/05/14 03:53:18;;;;;;;1.98;0.90;;;20.50;56.40;;;;;;5071222;28;20055;-57
2022/05/14 03:55:44;;;;;;;2.78;0.85;;;20.50;56.50;;;;;;5070050;28;20056;-56
2022/05/14 03:58:09;;;;;;;2.28;1.00;;;20.50;57.20;;;;;;5072138;28;20051;-56
2022/05/14 04:00:35;;;;;;;3.13;1.00;;;20.50;56.40;;;;;;5072085;28;20119;-56
2022/05/14 04:03:02;;;;;;;3.70;1.08;;;20.60;56.50;;;;;;5070429;28;20445;-57
2022/05/14 04:05:27;;;;;;;3.13;1.05;;;20.60;56.60;;;;;;5071282;28;20044;-57
2022/05/14 04:07:53;;;;;;;2.42;0.98;;;20.60;56.60;;;;;;5070977;28;20403;-56
2022/05/14 04:10:19;;;;;;;3.47;0.80;;;20.60;56.50;;;;;;5070844;28;20059;-56
2022/05/14 04:12:45;;;;;;;2.17;0.98;;;20.60;56.60;;;;;;5071434;28;20036;-57
2022/05/14 04:15:11;;;;;;;3.55;1.00;;;20.60;56.60;;;;;;5071925;28;20395;-56
2022/05/14 04:17:36;;;;;;;2.92;0.90;;;20.60;56.50;;;;;;5071263;28;20072;-56
2022/05/14 04:20:02;;;;;;;3.60;0.90;;;20.60;56.60;;;;;;5071472;28;20498;-56
2022/05/14 04:22:28;;;;;;;2.55;1.00;;;20.60;56.60;;;;;;5070460;28;20529;-56
2022/05/14 04:24:53;;;;;;;2.17;0.80;;;20.60;56.60;;;;;;5070365;28;20074;-57
2022/05/14 04:27:19;;;;;;;2.22;0.95;;;20.60;56.60;;;;;;5071581;28;20044;-57
2022/05/14 04:29:44;;;;;;;3.72;1.08;;;20.60;56.50;;;;;;5074431;28;20048;-57
2022/05/14 04:32:10;;;;;;;2.75;0.90;;;20.70;56.60;;;;;;5074701;28;20049;-57
2022/05/14 04:34:35;;;;;;;2.05;0.93;;;20.70;56.60;;;;;;5075325;28;20048;-56
2022/05/14 04:37:01;;;;;;;3.80;0.90;;;20.70;56.60;;;;;;5073899;28;20113;-57
2022/05/14 04:39:32;;;;;;;2.20;0.70;;;20.70;56.50;;;;;;5075198;28;20501;-56
2022/05/14 04:42:03;;;;;;;3.78;1.10;;;20.70;56.80;;;;;;5075187;28;20476;-57
2022/05/14 04:44:29;;;;;;;1.88;0.70;;;20.70;56.50;;;;;;5074399;28;20450;-57
2022/05/14 04:46:55;;;;;;;1.88;0.85;;;20.70;56.40;;;;;;5074336;28;20143;-57
2022/05/14 04:49:20;;;;;;;2.55;0.80;;;20.70;56.40;;;;;;5074809;28;20128;-57
2022/05/14 04:51:46;;;;;;;2.90;0.85;;;20.80;56.50;;;;;;5072508;28;20094;-57
2022/05/14 04:54:11;;;;;;;2.72;0.85;;;20.80;56.40;;;;;;5075004;28;20072;-56
2022/05/14 04:56:37;;;;;;;2.03;0.80;;;20.80;56.40;;;;;;5075099;28;20070;-57
2022/05/14 04:59:03;;;;;;;2.05;0.80;;;20.80;56.30;;;;;;5073876;28;20044;-57
2022/05/14 05:01:28;;;;;;;2.38;0.90;;;20.80;56.30;;;;;;5074011;28;20079;-56
2022/05/14 05:03:54;;;;;;;2.65;0.95;;;20.80;56.30;;;;;;5073622;28;20391;-57
2022/05/14 05:06:23;;;;;;;3.15;0.85;;;20.90;56.30;;;;;;5072172;28;20052;-56
2022/05/14 05:08:49;;;;;;;3.10;1.05;;;20.80;56.30;;;;;;5074628;28;20040;-56
2022/05/14 05:11:15;;;;;;;2.25;0.75;;;20.90;56.40;;;;;;5074403;28;20496;-57
2022/05/14 05:13:40;;;;;;;2.55;0.90;;;20.80;57.00;;;;;;5073574;28;20059;-57
2022/05/14 05:16:06;;;;;;;2.05;0.73;;;20.90;56.40;;;;;;5074612;28;20060;-56
2022/05/14 05:18:32;;;;;;;3.83;1.20;;;20.90;56.40;;;;;;5073250;28;20043;-57
2022/05/14 05:20:57;;;;;;;2.25;0.90;;;20.90;56.40;;;;;;5073241;28;20060;-56
2022/05/14 05:23:23;;;;;;;4.07;1.10;;;20.90;56.50;;;;;;5073566;28;20048;-57
2022/05/14 05:25:49;;;;;;;2.78;0.80;;;20.90;56.50;;;;;;5074018;28;20097;-57
2022/05/14 05:28:15;;;;;;;2.22;0.70;;;20.90;56.50;;;;;;5073939;28;20040;-57
2022/05/14 05:30:41;;;;;;;3.65;0.90;;;20.90;56.50;;;;;;5074134;28;20043;-57
2022/05/14 05:33:14;;;;;;;2.15;0.90;;;20.90;56.60;;;;;;5072920;28;20040;-57
2022/05/14 05:35:40;;;;;;;2.88;1.10;;;21.00;56.60;;;;;;5073865;28;20048;-57
2022/05/14 05:38:05;;;;;;;3.55;0.98;;;21.00;56.60;;;;;;5074444;28;20048;-57
2022/05/14 05:40:31;;;;;;;2.72;1.00;;;21.00;56.60;;;;;;5072448;28;20044;-56
2022/05/14 05:42:56;;;;;;;1.50;0.70;;;21.00;56.60;;;;;;5073870;28;20051;-57
2022/05/14 05:45:22;;;;;;;2.13;0.90;;;21.00;56.70;;;;;;5073620;28;20395;-57
2022/05/14 05:47:48;;;;;;;2.05;0.90;;;21.10;56.70;;;;;;5072149;28;20044;-57
2022/05/14 05:50:13;;;;;;;3.35;0.93;;;21.10;56.70;;;;;;5072184;28;20071;-57
2022/05/14 05:52:39;;;;;;;2.35;0.80;;;21.10;56.70;;;;;;5072397;28;20036;-58
2022/05/14 05:57:49;;;;;;;1.65;0.75;;;21.10;56.70;;;;;;5064321;28;20049;-57
2022/05/14 06:00:21;;;;;;;0.98;0.50;;;21.10;56.70;;;;;;5054010;28;20049;-57
2022/05/14 06:02:46;;;;;;;3.35;0.80;;;21.10;56.70;;;;;;5051362;28;20045;-57
2022/05/14 06:05:12;;;;;;;2.45;0.90;;;21.10;56.70;;;;;;5052658;28;20045;-57
2022/05/14 06:07:39;;;;;;;2.53;0.75;;;21.10;56.80;;;;;;5052835;28;20082;-57
2022/05/14 06:10:06;;;;;;;2.22;0.80;;;21.10;56.80;;;;;;5052065;28;20056;-57
2022/05/14 06:12:32;;;;;;;1.38;0.73;;;21.10;56.80;;;;;;5052652;28;20051;-57
2022/05/14 06:14:57;;;;;;;1.95;0.73;;;21.20;56.90;;;;;;5052782;28;20060;-57
2022/05/14 06:17:23;;;;;;;1.90;0.77;;;21.20;56.90;;;;;;5051691;28;20084;-58
2022/05/14 06:19:48;;;;;;;2.72;1.02;;;21.20;57.00;;;;;;5052201;28;20519;-57
2022/05/14 06:22:14;;;;;;;1.95;0.77;;;21.20;57.00;;;;;;5051740;28;20174;-58
2022/05/14 06:24:39;;;;;;;1.38;0.70;;;21.20;57.00;;;;;;5052444;28;20060;-58
2022/05/14 06:27:05;;;;;;;1.88;0.85;;;21.20;57.00;;;;;;5053373;28;20056;-58
2022/05/14 06:29:31;;;;;;;3.13;0.85;;;21.20;57.00;;;;;;5052724;28;20473;-58
2022/05/14 06:31:59;;;;;;;3.83;1.05;;;21.20;57.10;;;;;;5052731;28;20049;-57
2022/05/14 06:34:25;;;;;;;4.63;1.50;;;21.30;57.30;;;;;;5053035;28;20098;-57
2022/05/14 06:36:51;;;;;;;4.32;1.10;;;21.30;57.50;;;;;;5051908;28;20167;-57
2022/05/14 06:39:17;;;;;;;3.97;1.10;;;21.30;57.60;;;;;;5053214;28;20132;-57
2022/05/14 06:41:43;;;;;;;3.28;1.10;;;21.30;57.50;;;;;;5052568;28;20119;-57
2022/05/14 06:44:08;;;;;;;3.17;0.90;;;21.30;57.50;;;;;;5051928;28;20192;-57
2022/05/14 06:46:34;;;;;;;3.63;1.20;;;21.40;57.60;;;;;;5051717;28;20048;-57
2022/05/14 06:49:01;;;;;;;2.65;1.00;;;21.40;57.70;;;;;;5050938;28;20048;-57
2022/05/14 06:51:27;;;;;;;2.83;0.90;;;21.40;57.70;;;;;;5050052;28;20053;-57
2022/05/14 06:53:53;;;;;;;4.80;0.90;;;21.40;57.80;;;;;;5051431;28;20086;-57
2022/05/14 06:56:18;;;;;;;7.93;1.10;;;21.40;57.90;;;;;;5052663;28;20033;-57
2022/05/14 06:58:44;;;;;;;5.55;0.95;;;21.40;58.60;;;;;;5051762;28;20451;-58
2022/05/14 07:01:10;;;;;;;4.50;1.10;;;21.40;58.10;;;;;;5051258;28;20052;-57
2022/05/14 07:06:40;;;;;;;4.80;1.08;;;21.40;58.20;;;;;;5050592;28;20504;-57
2022/05/14 07:09:17;;;;;;;4.60;1.02;;;21.40;58.30;;;;;;5051656;28;20127;-56
2022/05/14 07:11:44;;;;;;;4.65;1.20;;;21.40;58.50;;;;;;5051355;28;20049;-57
2022/05/14 07:14:10;;;;;;;6.78;1.30;;;21.50;58.70;;;;;;5052085;28;20091;-56
2022/05/14 07:16:37;;;;;;;3.63;1.00;;;21.40;58.60;;;;;;5052556;28;20063;-56
2022/05/14 07:19:06;;;;;;;6.35;1.30;;;21.50;58.80;;;;;;5050038;28;20092;-57
2022/05/14 07:21:33;;;;;;;9.05;1.60;;;21.50;58.80;;;;;;5051351;28;20079;-57
2022/05/14 07:23:58;;;;;;;3.78;0.90;;;21.40;58.80;;;;;;5050398;28;20451;-57
2022/05/14 07:26:27;;;;;;;6.75;1.10;;;21.50;58.90;;;;;;5049858;28;20396;-56
2022/05/14 07:28:52;;;;;;;4.47;0.95;;;21.50;59.00;;;;;;5051638;28;20446;-57
2022/05/14 07:31:18;;;;;;;2.60;1.00;;;21.50;59.00;;;;;;5052103;28;20116;-58
2022/05/14 07:33:43;;;;;;;3.97;1.10;;;21.60;59.10;;;;;;5050920;28;20447;-59
2022/05/14 07:36:12;;;;;;;3.72;1.35;;;21.50;59.00;;;;;;5051565;28;20076;-58
2022/05/14 07:38:37;;;;;;;4.28;1.00;;;21.60;59.00;;;;;;5051486;28;20037;-58
2022/05/14 07:41:03;;;;;;;2.88;1.00;;;21.60;59.00;;;;;;5050320;28;20052;-58
2022/05/14 07:43:31;;;;;;;5.00;1.10;;;21.60;58.90;;;;;;5050995;28;20052;-58
2022/05/14 07:46:00;;;;;;;3.40;1.10;;;21.60;58.90;;;;;;5050677;28;20134;-58
2022/05/14 07:48:28;;;;;;;3.45;1.00;;;21.60;58.90;;;;;;5049145;28;20041;-58
2022/05/14 07:50:54;;;;;;;4.28;1.00;;;21.60;58.90;;;;;;5050753;28;20041;-58
2022/05/14 07:53:19;;;;;;;5.03;1.10;;;21.60;58.90;;;;;;5049951;28;20043;-58
2022/05/14 07:55:45;;;;;;;3.33;1.10;;;21.60;59.00;;;;;;5048981;28;20084;-58
2022/05/14 07:58:11;;;;;;;5.60;1.20;;;21.60;59.10;;;;;;5050947;28;20532;-57
2022/05/14 08:00:36;;;;;;;4.18;1.10;;;21.70;59.30;;;;;;5052222;28;20090;-57
2022/05/14 08:03:02;;;;;;;3.85;1.08;;;21.70;59.30;;;;;;5051575;28;20041;-58
2022/05/14 08:05:27;;;;;;;3.80;1.05;;;21.70;59.30;;;;;;5055639;28;20041;-57
2022/05/14 08:07:53;;;;;;;4.97;0.80;;;21.70;59.30;;;;;;5054126;28;20045;-57
2022/05/14 08:10:19;;;;;;;6.47;1.13;;;21.70;59.30;;;;;;5054458;28;20041;-58
2022/05/14 08:12:46;;;;;;;5.63;1.02;;;21.80;59.30;;;;;;5055772;28;20112;-57
2022/05/14 08:15:14;;;;;;;2.08;1.00;;;21.80;59.40;;;;;;5055133;28;20067;-57
2022/05/14 08:17:39;;;;;;;4.18;1.00;;;21.80;59.30;;;;;;5055624;28;20075;-56
2022/05/14 08:20:06;;;;;;;4.30;1.55;;;21.80;59.30;;;;;;5047951;28;20079;-58
2022/05/14 08:25:16;;;;;;;3.35;1.25;;;21.80;59.30;;;;;;5046803;28;20045;-57
2022/05/14 08:27:47;;;;;;;4.95;1.10;;;21.80;59.30;;;;;;5045818;28;20033;-57
2022/05/14 08:30:23;;;;;;;5.38;0.90;;;21.80;59.30;;;;;;5042529;28;20485;-58
2022/05/14 08:32:48;;;;;;;3.13;1.02;;;21.80;59.30;;;;;;5035368;28;20053;-58
2022/05/14 08:35:14;;;;;;;4.03;1.20;;;21.80;59.30;;;;;;5035511;28;20045;-57
2022/05/14 08:37:40;;;;;;;3.38;1.10;;;21.80;59.40;;;;;;5034401;28;20124;-58
2022/05/14 08:40:13;;;;;;;4.68;1.20;;;21.80;59.30;;;;;;5035383;28;20081;-57
2022/05/14 08:42:39;;;;;;;4.40;1.13;;;21.90;59.50;;;;;;5034868;28;20551;-58
2022/05/14 08:45:05;;;;;;;4.10;1.13;;;21.80;59.40;;;;;;5034283;28;20038;-57
2022/05/14 08:47:39;;;;;;;8.93;1.20;;;21.90;59.50;;;;;;5052449;28;20561;-56
2022/05/14 08:50:05;;;;;;;6.80;1.27;;;21.90;59.50;;;;;;5059539;28;20114;-57
2022/05/14 08:52:31;;;;;;;3.53;0.90;;;21.90;59.60;;;;;;5052209;28;20045;-57
2022/05/14 08:55:04;;;;;;;5.43;1.08;;;21.90;60.20;;;;;;5054352;28;20079;-58
2022/05/14 08:57:38;;;;;;;5.00;1.23;;;21.90;59.70;;;;;;5054256;28;20040;-57
2022/05/14 09:00:05;;;;;;;7.43;1.15;;;21.90;59.60;;;;;;5055131;28;20075;-58
2022/05/14 09:02:50;;;;;;;5.47;1.30;;;21.90;59.50;;;;;;5055117;28;20515;-58
2022/05/14 09:05:21;;;;;;;5.13;1.48;;;21.90;59.40;;;;;;5054110;28;20068;-57
2022/05/14 09:07:46;;;;;;;6.75;1.30;;;21.90;59.40;;;;;;5054413;28;20041;-58
2022/05/14 09:10:32;;;;;;;5.60;1.33;;;21.90;59.30;;;;;;5054413;28;20400;-58
2022/05/14 09:13:01;;;;;;;5.32;1.50;;;21.90;59.00;;;;;;5053555;28;20056;-58
2022/05/14 09:15:27;;;;;;;;;;;21.90;58.80;;;;;;5053994;28;20060;-58
2022/05/14 09:18:08;;;;;;;7.50;1.98;;;21.80;58.40;;;;;;5053903;28;20005;-58
2022/05/14 09:20:45;;;;;;;10.45;2.40;;;21.90;58.60;;;;;;5036901;28;20562;-58
2022/05/14 09:23:10;;;;;;;12.82;2.83;;;21.80;58.20;;;;;;5049875;28;20041;-58
2022/05/14 09:25:39;;;;;;;12.25;2.63;;;21.90;58.30;;;;;;5049308;28;20045;-58
2022/05/14 09:28:10;;;;;;;16.27;2.90;;;21.90;58.20;;;;;;5034708;28;20077;-58
2022/05/14 09:30:36;;;;;;;13.52;3.10;;;21.90;58.00;;;;;;5039479;28;20067;-57
2022/05/14 09:33:03;;;;;;;10.05;2.95;;;21.90;58.00;;;;;;5043782;28;20051;-58
2022/05/14 09:35:32;;;;;;;12.38;3.13;;;21.90;58.00;;;;;;5043260;28;20121;-56
2022/05/14 09:38:18;;;;;;;8.98;2.78;;;21.80;58.00;;;;;;5058152;28;20041;-57
2022/05/14 09:40:43;;;;;;;10.48;2.45;;;21.90;58.10;;;;;;5044121;28;20053;-57
2022/05/14 09:43:14;;;;;;;10.63;2.97;;;21.90;58.20;;;;;;5044215;28;20037;-57
2022/05/14 09:45:42;;;;;;;9.10;2.58;;;21.80;58.20;;;;;;5044251;28;20124;-57
2022/05/14 09:48:16;;;;;;;8.50;2.75;;;21.80;58.30;;;;;;5047602;28;20480;-58
2022/05/14 09:50:45;;;;;;;9.40;2.90;;;21.80;58.30;;;;;;5053768;28;20123;-58
2022/05/14 09:53:10;;;;;;;10.55;2.88;;;21.90;58.40;;;;;;5053797;28;20515;-58
2022/05/14 09:55:56;;;;;;;11.90;3.15;;;21.80;58.20;;;;;;5047077;28;20045;-58
2022/05/14 09:58:37;;;;;;;9.13;2.50;;;21.80;58.00;;;;;;5068276;28;20041;-58
2022/05/14 10:01:14;;;;;;;14.07;3.25;;;21.80;58.00;;;;;;5056882;28;20167;-58
2022/05/14 10:04:01;;;;;;;12.30;3.20;;;21.80;58.00;;;;;;5048567;28;20038;-58
2022/05/14 10:06:45;;;;;;;11.40;3.10;;;21.90;58.00;;;;;;5034076;28;20051;-58
2022/05/14 10:09:22;;;;;;;10.15;2.92;;;21.90;58.00;;;;;;5050977;28;20083;-58
2022/05/14 10:11:52;;;;;;;14.50;3.53;;;21.90;58.00;;;;;;5033327;28;20041;-58
2022/05/14 10:15:03;;;;;;;14.60;3.22;;;21.90;58.00;;;;;;5032066;28;20054;-58
2022/05/14 10:18:10;;;;;;;11.82;2.80;;;22.00;58.10;;;;;;5046553;28;20048;-57
2022/05/14 10:20:59;;;;;;;8.57;2.80;;;21.90;58.10;;;;;;5025103;28;20058;-56
2022/05/14 10:26:49;;;;;;;11.05;2.85;;;22.00;58.20;;;;;;5032382;28;20046;-57
2022/05/14 10:29:34;;;;;;;9.45;3.03;;;22.00;58.30;;;;;;5047314;28;20129;-58
2022/05/14 10:32:08;;;;;;;11.40;2.92;;;21.90;58.20;;;;;;5048510;28;20059;-61
2022/05/14 10:34:48;;;;;;;8.98;2.80;;;22.00;58.30;;;;;;5033168;28;20052;-58
2022/05/14 10:37:35;;;;;;;9.98;2.97;;;21.90;58.30;;;;;;5032468;28;20041;-58
2022/05/14 10:40:21;;;;;;;9.43;2.60;;;21.90;58.20;;;;;;5030152;28;20058;-58
2022/05/14 10:42:53;;;;;;;11.57;2.75;;;21.90;58.30;;;;;;5032145;28;20049;-58
2022/05/14 10:45:31;;;;;;;11.77;2.88;;;21.90;58.30;;;;;;5032505;28;20125;-58
2022/05/14 10:48:30;;;;;;;12.32;2.85;;;21.90;58.20;;;;;;5032516;28;20125;-58
2022/05/14 10:50:55;;;;;;;8.82;2.72;;;22.00;58.20;;;;;;5029943;28;20043;-58
2022/05/14 10:53:21;;;;;;;9.85;2.80;;;22.00;58.20;;;;;;5032746;28;20049;-58
2022/05/14 10:55:58;;;;;;;10.13;2.30;;;22.00;58.30;;;;;;5030336;28;20401;-58
2022/05/14 10:58:45;;;;;;;10.38;2.72;;;22.00;58.20;;;;;;5032243;28;20098;-58
2022/05/14 11:01:34;;;;;;;7.22;2.15;;;22.00;58.20;;;;;;5033188;28;20037;-58
2022/05/14 11:04:06;;;;;;;9.80;2.58;;;22.00;58.20;;;;;;5031609;28;20405;-59
2022/05/14 11:06:32;;;;;;;8.45;2.60;;;22.00;58.20;;;;;;5031687;28;20449;-58
2022/05/14 11:08:58;;;;;;;8.93;2.42;;;22.00;58.00;;;;;;5031253;28;20079;-59
2022/05/14 11:11:25;;;;;;;13.40;2.83;;;22.00;57.70;;;;;;5030536;28;20128;-59
2022/05/14 11:13:59;;;;;;;10.57;2.72;;;22.00;57.60;;;;;;5036049;28;20435;-58
2022/05/14 11:16:35;;;;;;;12.63;2.80;;;22.00;57.40;;;;;;5046228;28;20136;-59
2022/05/14 11:19:04;;;;;;;12.55;2.67;;;21.90;57.10;;;;;;5050313;28;20088;-58
2022/05/14 11:21:34;;;;;;;;;;;22.00;57.10;;;;;;5050877;28;20091;-58
2022/05/14 11:23:59;;;;;;;10.23;2.78;;;22.00;57.10;;;;;;5050520;28;19925;-58
2022/05/14 11:26:25;;;;;;;10.18;2.15;;;21.90;57.10;;;;;;5051565;28;20051;-58
2022/05/14 11:29:14;;;;;;;11.15;2.22;;;22.00;57.10;;;;;;5067756;28;20069;-58
2022/05/14 11:31:42;;;;;;;11.10;2.75;;;21.90;56.90;;;;;;5052225;28;20151;-58
2022/05/14 11:34:17;;;;;;;9.07;2.58;;;21.90;57.00;;;;;;5050428;28;20041;-58
2022/05/14 11:36:48;;;;;;;11.95;2.90;;;21.90;57.00;;;;;;5051023;28;20128;-58
2022/05/14 11:39:20;;;;;;;10.80;2.60;;;21.90;57.00;;;;;;5051406;28;20033;-58
2022/05/14 11:41:45;;;;;;;9.02;2.45;;;21.90;57.00;;;;;;5052090;28;20103;-58
2022/05/14 11:44:11;;;;;;;9.68;2.50;;;21.90;57.00;;;;;;5052266;28;20490;-58
2022/05/14 11:46:49;;;;;;;7.50;2.35;;;21.90;57.00;;;;;;5051649;28;20041;-58
2022/05/14 11:49:14;;;;;;;;;;;22.00;57.00;;;;;;5051640;28;20136;-58
2022/05/14 11:52:14;;;;;;;11.80;2.70;;;21.90;57.00;;;;;;5052021;28;19968;-58
2022/05/14 11:54:53;;;;;;;8.57;2.70;;;21.90;56.90;;;;;;5033207;28;20550;-58
2022/05/14 11:57:18;;;;;;;9.35;2.55;;;22.00;56.90;;;;;;5066803;28;20546;-59
2022/05/14 12:00:08;;;;;;;7.55;2.45;;;22.00;56.90;;;;;;5051844;28;20057;-59
2022/05/14 12:02:37;;;;;;;10.57;2.50;;;22.00;56.90;;;;;;5045860;28;20053;-58
2022/05/14 12:05:04;;;;;;;6.18;2.45;;;22.00;56.90;;;;;;5067228;28;20037;-58
2022/05/14 12:07:58;;;;;;;8.85;2.33;;;21.90;56.80;;;;;;5066819;28;20044;-58
2022/05/14 12:10:51;;;;;;;10.10;2.72;;;22.00;56.90;;;;;;5050964;28;20115;-58
2022/05/14 12:13:28;;;;;;;10.05;2.90;;;22.00;56.80;;;;;;5065761;28;20053;-59
2022/05/14 12:15:56;;;;;;;8.65;1.92;;;22.00;56.80;;;;;;5066436;28;20389;-59
2022/05/14 12:18:21;;;;;;;9.43;2.20;;;22.00;56.80;;;;;;5050998;28;20040;-59
2022/05/14 12:21:01;;;;;;;5.90;1.73;;;22.00;56.80;;;;;;5051648;28;20048;-59
2022/05/14 12:23:44;;;;;;;7.75;2.33;;;22.00;56.80;;;;;;5051325;28;20049;-58
2022/05/14 12:26:23;;;;;;;7.68;2.22;;;22.00;56.80;;;;;;5051761;28;20519;-58
2022/05/14 12:28:50;;;;;;;8.32;2.70;;;22.00;56.70;;;;;;5051155;28;20084;-58
2022/05/14 12:34:03;;;;;;;9.32;2.30;;;22.10;56.70;;;;;;5064931;28;20052;-58
2022/05/14 12:36:50;;;;;;;6.10;2.35;;;22.10;56.60;;;;;;5051147;28;20040;-58
2022/05/14 12:39:22;;;;;;;8.10;2.40;;;22.10;56.60;;;;;;5052118;28;20065;-58
2022/05/14 12:41:53;;;;;;;9.88;2.80;;;22.10;56.60;;;;;;5051612;28;20041;-58
2022/05/14 12:44:28;;;;;;;6.75;2.13;;;22.10;56.50;;;;;;5066784;28;20111;-58
2022/05/14 12:46:55;;;;;;;8.02;2.47;;;22.10;56.50;;;;;;5050373;28;20097;-58
2022/05/14 12:49:29;;;;;;;7.10;2.30;;;22.10;56.60;;;;;;5066623;28;20078;-58
2022/05/14 12:51:59;;;;;;;7.18;2.45;;;22.10;56.50;;;;;;5054871;28;20102;-58
2022/05/14 12:54:29;;;;;;;9.07;2.30;;;22.10;56.60;;;;;;5055451;28;20044;-58
2022/05/14 12:56:58;;;;;;;5.80;1.92;;;22.10;56.50;;;;;;5054295;28;20052;-58
2022/05/14 12:59:23;;;;;;;;;;;22.10;56.50;;;;;;5071094;28;20111;-58
2022/05/14 13:01:51;;;;;;;5.10;1.55;;;22.10;56.50;;;;;;5054953;28;20054;-58
2022/05/14 13:04:18;;;;;;;5.80;2.20;;;22.10;56.60;;;;;;5053275;28;20057;-58
2022/05/14 13:06:45;;;;;;;8.87;1.90;;;22.10;56.60;;;;;;5053846;28;20056;-58
2022/05/14 13:09:10;;;;;;;7.07;2.08;;;22.10;56.60;;;;;;5070314;28;20049;-58
2022/05/14 13:11:43;;;;;;;7.68;2.40;;;22.10;56.60;;;;;;5069388;28;20365;-58
2022/05/14 13:14:23;;;;;;;5.90;1.83;;;22.10;56.60;;;;;;5053735;28;20057;-58